Time;durP1;ratioP1;P1;durP2;ratioP2;P2;SDS_P1;SDS_P2;PMS_P1;PMS_P2;Temp;Humidity;BMP_temperature;BMP_pressure;BME280_temperature;BME280_humidity;BME280_pressure;Samples;Min_cycle;Max_cycle;Signal;HPM_P1;HPM_P2
2024/04/03 00:02:19;;;;;;;4.10;1.90;;;;;;;9.24;69.95;93023.97;5096790;28;20111;-72
2024/04/03 00:04:44;;;;;;;3.25;2.00;;;;;;;9.29;70.35;93046.44;5089625;28;20059;-72
2024/04/03 00:07:10;;;;;;;3.25;1.80;;;;;;;9.15;70.08;93038.81;5090099;28;20036;-72
2024/04/03 00:09:35;;;;;;;3.05;1.75;;;;;;;9.22;70.47;93049.03;5090947;28;20048;-72
2024/04/03 00:12:01;;;;;;;4.57;1.95;;;;;;;8.78;71.22;93007.84;5077751;28;20802;-72
2024/04/03 00:14:26;;;;;;;3.33;1.70;;;;;;;8.86;71.58;93015.31;5093763;28;20027;-72
2024/04/03 00:16:52;;;;;;;5.15;1.77;;;;;;;9.05;71.71;93051.28;5089024;28;20032;-73
2024/04/03 00:19:17;;;;;;;3.97;1.92;;;;;;;8.96;71.72;93035.34;5089300;28;20036;-73
2024/04/03 00:21:43;;;;;;;4.15;1.73;;;;;;;9.05;72.29;93056.41;5088418;28;20039;-73
2024/04/03 00:24:09;;;;;;;5.50;2.08;;;;;;;8.66;72.32;93010.25;5090805;28;20036;-73
2024/04/03 00:26:34;;;;;;;3.42;1.30;;;;;;;8.73;72.19;93054.53;5091906;28;20043;-72
2024/04/03 00:29:00;;;;;;;3.25;1.58;;;;;;;8.93;71.38;93054.47;5092881;28;20464;-72
2024/04/03 00:31:25;;;;;;;2.83;1.40;;;;;;;8.68;71.87;93032.13;5094403;28;20036;-72
2024/04/03 00:33:51;;;;;;;2.30;1.30;;;;;;;8.59;71.87;93028.19;5093177;28;20039;-72
2024/04/03 00:36:16;;;;;;;2.63;1.48;;;;;;;8.71;71.93;93050.63;5089408;28;20119;-72
2024/04/03 00:38:42;;;;;;;2.08;1.20;;;;;;;8.58;72.31;93036.06;5089471;28;20072;-72
2024/04/03 00:41:07;;;;;;;3.50;1.20;;;;;;;8.72;72.21;93054.75;5088971;28;20067;-72
2024/04/03 00:43:32;;;;;;;2.97;0.90;;;;;;;8.25;72.06;92999.31;5087817;28;20027;-72
2024/04/03 00:45:59;;;;;;;1.60;1.05;;;;;;;8.23;72.14;93014.06;5090475;28;20126;-72
2024/04/03 00:48:26;;;;;;;2.33;1.02;;;;;;;8.50;71.98;93060.09;5088757;28;20047;-71
2024/04/03 00:50:53;;;;;;;2.35;1.20;;;;;;;8.16;71.88;93019.97;5088713;28;20146;-71
2024/04/03 00:53:19;;;;;;;2.03;1.00;;;;;;;8.25;71.79;93058.16;5088891;28;20078;-72
2024/04/03 00:55:45;;;;;;;1.80;0.90;;;;;;;7.70;72.27;92990.13;5088760;28;20607;-72
2024/04/03 00:58:11;;;;;;;;;;;;;;;8.24;72.29;93059.94;5089221;28;20128;-72
2024/04/03 01:00:36;;;;;;;3.10;1.77;;;;;;;8.19;72.30;93062.28;5090675;28;19916;-71
2024/04/03 01:03:05;;;;;;;4.85;2.10;;;;;;;8.02;72.50;93034.56;5092846;28;20484;-72
2024/04/03 01:05:32;;;;;;;5.65;2.90;;;;;;;7.89;72.68;93014.09;5088378;28;20047;-71
2024/04/03 01:07:57;;;;;;;5.68;2.85;;;;;;;8.10;73.55;93048.91;5087987;28;20799;-72
2024/04/03 01:10:23;;;;;;;6.63;3.10;;;;;;;7.30;74.36;92945.66;5090209;28;20047;-72
2024/04/03 01:12:50;;;;;;;;;;;;;;;8.10;74.25;93066.81;5087869;28;20043;-72
2024/04/03 01:15:15;;;;;;;7.10;3.53;;;;;;;7.92;74.67;93067.41;5106306;28;19912;-72
2024/04/03 01:17:41;;;;;;;7.95;3.83;;;;;;;7.92;74.99;93069.97;5095890;28;20036;-73
2024/04/03 01:20:08;;;;;;;10.63;4.60;;;;;;;7.99;74.35;93070.78;5087751;28;20036;-73
2024/04/03 01:22:34;;;;;;;6.88;3.55;;;;;;;7.58;75.26;93020.56;5088268;28;20035;-73
2024/04/03 01:25:00;;;;;;;8.07;4.03;;;;;;;7.59;75.88;93028.06;5087432;28;20409;-73
2024/04/03 01:27:25;;;;;;;7.00;3.15;;;;;;;7.04;76.05;92959.22;5086931;28;20039;-73
2024/04/03 01:29:50;;;;;;;8.55;3.72;;;;;;;7.79;76.02;93065.66;5089034;28;20031;-73
2024/04/03 01:32:16;;;;;;;7.63;4.03;;;;;;;7.43;75.49;93019.00;5073367;28;20032;-72
2024/04/03 01:34:41;;;;;;;8.50;4.13;;;;;;;7.57;75.28;93040.25;5090448;28;20036;-73
2024/04/03 01:37:08;;;;;;;5.63;2.80;;;;;;;7.74;75.58;93068.00;5087451;28;20470;-73
2024/04/03 01:39:33;;;;;;;3.95;2.10;;;;;;;7.48;75.11;93026.09;5087559;28;20036;-73
2024/04/03 01:41:59;;;;;;;2.67;1.42;;;;;;;7.41;75.99;93030.41;5087253;28;20524;-73
2024/04/03 01:44:25;;;;;;;4.95;2.10;;;;;;;7.47;75.54;93037.28;5087665;28;20047;-73
2024/04/03 01:46:50;;;;;;;4.43;1.60;;;;;;;7.56;76.04;93061.69;5089100;28;20028;-73
2024/04/03 01:49:16;;;;;;;2.50;1.58;;;;;;;7.58;75.61;93071.69;5091642;28;20032;-72
2024/04/03 01:51:41;;;;;;;2.72;1.40;;;;;;;7.25;75.54;93024.66;5101900;28;20020;-73
2024/04/03 01:54:06;;;;;;;2.72;1.17;;;;;;;7.33;75.93;93042.38;5091241;28;20059;-72
2024/04/03 01:56:32;;;;;;;2.33;1.50;;;;;;;7.21;75.92;93031.13;5088158;28;20027;-73
2024/04/03 01:58:57;;;;;;;2.20;1.30;;;;;;;7.39;76.02;93055.34;5087181;28;20397;-73
2024/04/03 02:01:23;;;;;;;4.30;1.65;;;;;;;7.35;76.54;93058.31;5092149;28;20031;-73
2024/04/03 02:03:48;;;;;;;1.95;0.95;;;;;;;7.42;76.33;93067.75;5090639;28;20424;-73
2024/04/03 02:06:14;;;;;;;3.13;1.23;;;;;;;7.42;76.67;93066.00;5087863;28;20040;-73
2024/04/03 02:08:39;;;;;;;4.30;1.30;;;;;;;7.27;77.00;93053.34;5090151;28;20047;-73
2024/04/03 02:11:05;;;;;;;1.70;1.25;;;;;;;6.89;77.01;93018.09;5086955;28;20457;-73
2024/04/03 02:13:30;;;;;;;2.63;1.25;;;;;;;7.02;76.95;93033.44;5095407;28;20041;-74
2024/04/03 02:15:56;;;;;;;2.42;1.40;;;;;;;7.06;76.63;93038.97;5091550;28;20054;-74
2024/04/03 02:18:22;;;;;;;4.22;1.67;;;;;;;6.84;76.79;93023.75;5098093;28;20024;-74
2024/04/03 02:20:47;;;;;;;2.63;1.15;;;;;;;6.28;77.38;92947.19;5097078;28;20027;-73
2024/04/03 02:23:13;;;;;;;1.77;1.30;;;;;;;6.98;77.86;93065.44;5093662;28;20053;-73
2024/04/03 02:25:39;;;;;;;2.55;1.02;;;;;;;6.67;77.06;93024.09;5096302;28;20028;-72
2024/04/03 02:28:05;;;;;;;2.15;1.25;;;;;;;6.56;76.99;93011.88;5096206;28;20539;-73
2024/04/03 02:30:31;;;;;;;2.72;1.02;;;;;;;6.54;77.40;93017.16;5093962;28;20059;-72
2024/04/03 02:32:56;;;;;;;2.30;1.45;;;;;;;6.58;77.94;93038.00;5094107;28;20773;-73
2024/04/03 02:35:22;;;;;;;2.63;1.70;;;;;;;6.61;78.50;93058.03;5098020;28;20066;-73
2024/04/03 02:37:47;;;;;;;3.53;1.70;;;;;;;6.28;78.90;93017.81;5095237;28;20039;-72
2024/04/03 02:40:13;;;;;;;3.50;1.40;;;;;;;6.28;78.39;93016.06;5098156;28;20028;-73
2024/04/03 02:42:38;;;;;;;3.45;1.30;;;;;;;6.41;78.74;93032.41;5101373;28;20028;-72
2024/04/03 02:45:04;;;;;;;2.28;1.35;;;;;;;6.65;79.21;93068.63;5100056;28;20035;-72
2024/04/03 02:47:32;;;;;;;2.08;1.48;;;;;;;6.64;79.63;93080.63;5098950;28;20074;-73
2024/04/03 02:49:58;;;;;;;22.15;15.00;;;;;;;6.38;79.29;93040.41;5101399;28;20080;-73
2024/04/03 02:52:23;;;;;;;11.38;7.65;;;;;;;6.40;79.31;93036.72;5101286;28;20016;-73
2024/04/03 02:54:48;;;;;;;11.18;5.82;;;;;;;6.33;78.43;93023.13;5100677;28;20023;-74
2024/04/03 02:57:15;;;;;;;19.67;14.00;;;;;;;6.67;79.53;93084.56;5100398;28;20035;-73
2024/04/03 02:59:42;;;;;;;11.20;8.13;;;;;;;6.30;80.67;93035.47;5088125;28;20067;-73
2024/04/03 03:02:08;;;;;;;9.48;6.88;;;;;;;6.63;80.43;93098.69;5098551;28;20059;-74
2024/04/03 03:04:41;;;;;;;5.85;4.03;;;;;;;6.13;80.44;93007.72;5099378;28;20027;-73
2024/04/03 03:07:08;;;;;;;5.70;4.10;;;;;;;6.35;80.42;93054.34;5099770;28;20492;-74
2024/04/03 03:09:34;;;;;;;8.35;3.80;;;;;;;6.39;80.16;93049.69;5101081;28;20047;-74
2024/04/03 03:11:59;;;;;;;7.25;3.88;;;;;;;6.46;80.06;93065.81;5098436;28;20040;-74
2024/04/03 03:14:25;;;;;;;4.13;2.92;;;;;;;6.39;80.11;93064.97;5096137;28;20473;-74
2024/04/03 03:16:50;;;;;;;4.72;2.50;;;;;;;6.49;79.40;93082.50;5100710;28;20063;-74
2024/04/03 03:19:16;;;;;;;5.57;2.47;;;;;;;6.34;79.11;93068.06;5099797;28;20048;-74
2024/04/03 03:21:41;;;;;;;3.15;2.00;;;;;;;6.33;79.38;93074.16;5099405;28;20061;-73
2024/04/03 03:24:07;;;;;;;3.38;1.90;;;;;;;6.55;78.92;93105.53;5098842;28;20032;-74
2024/04/03 03:26:32;;;;;;;3.67;1.73;;;;;;;6.40;79.27;93084.41;5098205;28;20473;-73
2024/04/03 03:28:58;;;;;;;6.63;1.60;;;;;;;6.27;78.73;93062.94;5099425;28;20035;-74
2024/04/03 03:31:23;;;;;;;3.63;1.75;;;;;;;6.46;79.01;93098.97;5100007;28;20032;-74
2024/04/03 03:33:49;;;;;;;2.22;1.30;;;;;;;6.34;79.21;93097.91;5095662;28;20072;-74
2024/04/03 03:36:14;;;;;;;3.50;1.40;;;;;;;6.10;79.38;93074.38;5099809;28;20404;-73
2024/04/03 03:38:39;;;;;;;3.58;1.50;;;;;;;6.03;80.61;93076.09;5098690;28;20024;-73
2024/04/03 03:41:05;;;;;;;3.10;1.85;;;;;;;5.95;80.19;93057.41;5095798;28;20035;-73
2024/04/03 03:43:30;;;;;;;4.50;2.10;;;;;;;6.26;80.02;93109.81;5099463;28;20058;-73
2024/04/03 03:45:56;;;;;;;6.60;3.03;;;;;;;6.19;80.17;93111.53;5099109;28;20046;-73
2024/04/03 03:52:36;;;;;;;8.45;3.53;;;;;;;6.14;79.89;93112.09;5097295;28;20423;-74
2024/04/03 03:53:57;;;;;;;7.70;3.83;;;;;;;5.78;81.08;93084.13;5097840;28;20452;-74
2024/04/03 03:56:24;;;;;;;7.72;3.53;;;;;;;5.78;81.62;93089.22;5098876;28;20130;-74
2024/04/03 03:58:50;;;;;;;7.07;3.50;;;;;;;6.06;81.97;93127.53;5097490;28;20040;-73
2024/04/03 04:01:15;;;;;;;;;;;;;;;6.11;83.07;93135.41;5096341;28;20120;-73
2024/04/03 04:03:41;;;;;;;6.53;2.78;;;;;;;6.00;83.46;93140.97;5096171;28;20298;-74
2024/04/03 04:06:06;;;;;;;6.95;3.28;;;;;;;6.02;83.57;93141.59;5098553;28;20850;-74
2024/04/03 04:08:32;;;;;;;5.03;2.72;;;;;;;5.94;83.08;93124.66;5099091;28;20122;-74
2024/04/03 04:11:00;;;;;;;6.20;2.50;;;;;;;5.46;82.93;93062.28;5093623;28;20146;-74
2024/04/03 04:13:25;;;;;;;9.25;3.15;;;;;;;6.07;82.77;93141.84;5098568;28;20390;-74
2024/04/03 04:15:51;;;;;;;10.52;3.60;;;;;;;6.04;82.69;93141.41;5092185;28;20039;-73
2024/04/03 04:18:17;;;;;;;4.00;2.53;;;;;;;5.95;81.82;93127.97;5097059;28;20047;-74
2024/04/03 04:20:43;;;;;;;6.22;3.00;;;;;;;5.88;81.11;93097.34;5098075;28;20512;-74
2024/04/03 04:23:08;;;;;;;8.10;2.40;;;;;;;5.83;80.19;93118.28;5071179;28;20030;-74
2024/04/03 04:25:34;;;;;;;6.15;2.80;;;;;;;5.81;80.50;93111.78;5097413;28;20401;-74
2024/04/03 04:28:00;;;;;;;4.47;2.05;;;;;;;6.07;79.97;93149.50;5096375;28;20386;-74
2024/04/03 04:30:26;;;;;;;5.45;2.25;;;;;;;5.67;80.18;93105.78;5098673;28;20088;-73
2024/04/03 04:32:51;;;;;;;6.13;2.50;;;;;;;5.55;81.31;93092.75;5097424;28;20024;-73
2024/04/03 04:35:17;;;;;;;5.32;2.17;;;;;;;6.01;81.39;93165.50;5091700;28;20400;-73
2024/04/03 04:37:43;;;;;;;5.30;2.17;;;;;;;5.97;80.80;93165.06;5096078;28;20489;-73
2024/04/03 04:40:10;;;;;;;4.35;1.98;;;;;;;5.71;81.79;93152.88;5096108;28;20099;-73
2024/04/03 04:42:37;;;;;;;5.25;1.65;;;;;;;5.75;82.78;93161.75;5095779;28;20044;-73
2024/04/03 04:45:03;;;;;;;2.88;1.75;;;;;;;5.80;82.53;93164.53;5092729;28;20027;-73
2024/04/03 04:47:28;;;;;;;5.60;1.60;;;;;;;5.54;82.72;93122.50;5091276;28;20035;-73
2024/04/03 04:49:54;;;;;;;3.80;1.55;;;;;;;5.85;82.82;93158.88;5097469;28;20111;-73
2024/04/03 04:52:19;;;;;;;3.50;1.90;;;;;;;5.61;82.86;93127.69;5095944;28;20080;-73
2024/04/03 04:54:45;;;;;;;4.93;1.70;;;;;;;5.84;83.48;93175.16;5093662;28;20035;-73
2024/04/03 04:57:14;;;;;;;4.28;1.70;;;;;;;5.56;84.22;93140.94;5088179;28;20039;-73
2024/04/03 04:59:40;;;;;;;4.35;2.33;;;;;;;5.62;87.21;93160.59;5095045;28;20043;-73
2024/04/03 05:02:05;;;;;;;6.45;3.90;;;;;;;5.34;90.22;93146.00;5096856;28;20027;-73
2024/04/03 05:04:31;;;;;;;6.75;4.32;;;;;;;5.38;93.26;93166.03;5098822;28;20428;-73
2024/04/03 05:06:57;;;;;;;9.15;4.85;;;;;;;5.16;95.31;93145.59;5096302;28;20039;-73
2024/04/03 05:09:23;;;;;;;6.93;4.10;;;;;;;4.90;96.71;93109.47;5096747;28;20044;-73
2024/04/03 05:11:49;;;;;;;8.90;4.07;;;;;;;4.89;97.80;93105.34;5096447;28;20416;-73
2024/04/03 05:14:14;;;;;;;7.75;3.90;;;;;;;5.38;97.80;93164.28;5094509;28;20035;-74
2024/04/03 05:16:40;;;;;;;9.43;4.35;;;;;;;5.45;97.99;93164.34;5092740;28;20039;-74
2024/04/03 05:19:05;;;;;;;9.82;4.85;;;;;;;5.17;98.08;93114.88;5095863;28;20465;-74
2024/04/03 05:21:33;;;;;;;8.70;4.30;;;;;;;5.36;97.93;93120.38;5098434;28;20043;-74
2024/04/03 05:23:59;;;;;;;9.13;3.65;;;;;;;5.89;94.13;93158.34;5094315;28;20122;-73
2024/04/03 05:26:24;;;;;;;10.77;3.85;;;;;;;6.06;89.92;93114.00;5096500;28;20135;-73
2024/04/03 05:28:49;;;;;;;8.63;4.22;;;;;;;5.95;87.41;93048.94;5093228;28;20045;-73
2024/04/03 05:31:15;;;;;;;7.82;3.38;;;;;;;6.72;86.03;93114.63;5096441;28;20038;-74
2024/04/03 05:33:43;;;;;;;7.32;3.47;;;;;;;7.14;85.70;93155.50;5097645;28;20035;-74
2024/04/03 05:36:09;;;;;;;5.45;3.22;;;;;;;7.18;82.21;93091.06;5093292;28;20042;-74
2024/04/03 05:38:36;;;;;;;5.30;2.70;;;;;;;7.78;81.36;93155.34;5095882;28;20031;-74
2024/04/03 05:41:01;;;;;;;;;;;;;;;8.01;79.88;93153.22;5098066;28;20036;-74
2024/04/03 05:43:27;;;;;;;5.75;2.50;;;;;;;8.19;79.77;93146.72;5096232;28;19964;-74
2024/04/03 05:45:57;;;;;;;7.75;2.72;;;;;;;8.31;77.44;93120.53;5097757;28;20035;-74
2024/04/03 05:48:24;;;;;;;5.75;3.00;;;;;;;8.64;75.30;93135.13;5097601;28;20032;-74
2024/04/03 05:51:04;;;;;;;9.40;3.20;;;;;;;8.79;74.76;93125.44;5094053;28;20027;-74
2024/04/03 05:53:30;;;;;;;7.32;3.15;;;;;;;9.05;73.28;93128.94;5098655;28;20130;-74
2024/04/03 05:55:57;;;;;;;4.55;2.40;;;;;;;9.53;72.58;93169.78;5097027;28;20974;-74
2024/04/03 05:58:23;;;;;;;7.25;3.00;;;;;;;9.76;70.59;93164.13;5099211;28;20038;-74
2024/04/03 06:00:53;;;;;;;10.10;3.47;;;;;;;9.88;70.63;93121.47;5097743;28;20028;-75
2024/04/03 06:03:19;;;;;;;14.52;5.75;;;;;;;10.58;68.62;93169.56;5095030;28;20043;-74
2024/04/03 06:05:56;;;;;;;8.20;4.13;;;;;;;10.87;67.46;93170.69;5098537;28;20032;-74
2024/04/03 06:08:22;;;;;;;11.07;4.00;;;;;;;11.17;66.64;93171.81;5083055;28;20503;-74
2024/04/03 06:10:48;;;;;;;14.40;3.95;;;;;;;11.35;66.75;93158.16;5097251;28;20028;-75
2024/04/03 06:13:14;;;;;;;11.32;2.47;;;;;;;11.38;64.38;93126.09;5092306;28;20143;-73
2024/04/03 06:15:39;;;;;;;3.55;1.98;;;;;;;11.87;64.24;93170.59;5099264;28;20150;-73
2024/04/03 06:18:05;;;;;;;6.30;2.50;;;;;;;12.13;62.88;93171.25;5100256;28;20078;-73
2024/04/03 06:20:31;;;;;;;5.70;2.75;;;;;;;11.73;61.23;93058.53;5102296;28;20044;-74
2024/04/03 06:22:56;;;;;;;4.28;2.28;;;;;;;12.64;60.62;93157.25;5096574;28;20485;-75
2024/04/03 06:25:22;;;;;;;10.15;4.57;;;;;;;12.95;59.61;93163.06;5102092;28;20127;-74
2024/04/03 06:27:48;;;;;;;5.35;3.03;;;;;;;13.13;57.77;93149.25;5101435;28;20055;-74
2024/04/03 06:30:14;;;;;;;5.22;2.50;;;;;;;13.28;57.55;93145.41;5099101;28;20023;-74
2024/04/03 06:32:39;;;;;;;5.47;2.13;;;;;;;13.60;57.45;93168.25;5096670;28;20519;-74
2024/04/03 06:35:05;;;;;;;8.30;2.80;;;;;;;13.91;57.00;93171.41;5090968;28;20032;-74
2024/04/03 06:37:31;;;;;;;6.50;3.05;;;;;;;14.12;56.34;93169.19;5090830;28;20039;-74
2024/04/03 06:39:57;;;;;;;5.45;2.72;;;;;;;14.38;54.77;93182.50;5091386;28;20040;-74
2024/04/03 06:42:23;;;;;;;6.25;2.67;;;;;;;14.69;55.51;93177.84;5098272;28;20039;-74
2024/04/03 06:44:52;;;;;;;10.00;2.28;;;;;;;14.32;54.10;93178.28;5108717;28;20468;-73
2024/04/03 06:47:18;;;;;;;5.55;1.95;;;;;;;14.49;53.33;93150.63;5109172;28;20522;-74
2024/04/03 06:49:43;;;;;;;4.35;1.45;;;;;;;14.85;54.01;93181.44;5107960;28;20035;-74
2024/04/03 06:52:09;;;;;;;5.15;1.80;;;;;;;14.99;52.81;93153.44;5096769;28;20031;-74
2024/04/03 06:54:35;;;;;;;2.78;1.25;;;;;;;15.19;49.78;93178.81;5097555;28;20498;-73
2024/04/03 06:57:02;;;;;;;3.03;1.80;;;;;;;15.14;50.33;93150.28;5086733;28;20038;-74
2024/04/03 06:59:27;;;;;;;5.70;1.45;;;;;;;15.31;49.16;93152.03;5095134;28;20109;-74
2024/04/03 07:01:53;;;;;;;2.75;0.88;;;;;;;15.59;47.76;93156.25;5092557;28;20043;-74
2024/04/03 07:04:18;;;;;;;2.72;1.00;;;;;;;15.52;47.31;93134.97;5092066;28;20038;-74
2024/04/03 07:06:44;;;;;;;2.35;0.90;;;;;;;15.61;47.85;93176.75;5091374;28;20818;-74
2024/04/03 07:09:09;;;;;;;1.83;0.80;;;;;;;15.13;47.22;93155.72;5089857;28;20052;-74
2024/04/03 07:11:35;;;;;;;2.38;1.10;;;;;;;15.91;48.82;93183.25;5098251;28;20031;-74
2024/04/03 07:14:00;;;;;;;2.15;1.00;;;;;;;15.94;46.90;93140.59;5106257;28;20027;-74
2024/04/03 07:16:26;;;;;;;2.63;1.15;;;;;;;16.28;45.23;93174.06;5095955;28;20074;-74
2024/04/03 07:18:55;;;;;;;4.63;0.90;;;;;;;16.49;44.49;93156.09;5096080;28;20042;-74
2024/04/03 07:21:21;;;;;;;3.45;0.98;;;;;;;16.67;44.26;93197.19;5094069;28;20428;-74
2024/04/03 07:23:46;;;;;;;2.08;1.02;;;;;;;15.50;46.73;93202.50;5097954;28;20024;-74
2024/04/03 07:26:12;;;;;;;2.28;1.13;;;;;;;15.44;45.96;93187.13;5103174;28;20403;-74
2024/04/03 07:28:38;;;;;;;4.05;1.10;;;;;;;15.17;46.56;93167.91;5091920;28;20565;-74
2024/04/03 07:31:03;;;;;;;3.33;1.00;;;;;;;14.93;46.18;93194.00;5094294;28;20553;-74
2024/04/03 07:33:29;;;;;;;2.58;1.35;;;;;;;15.39;45.86;93184.47;5096660;28;20488;-74
2024/04/03 07:35:54;;;;;;;2.72;0.90;;;;;;;15.93;46.20;93177.88;5103328;28;20027;-74
2024/04/03 07:38:20;;;;;;;3.50;1.00;;;;;;;16.59;43.83;93209.84;5089711;28;20071;-74
2024/04/03 07:40:50;;;;;;;2.88;0.98;;;;;;;16.62;44.16;93171.22;5089583;28;20036;-74
2024/04/03 07:43:16;;;;;;;4.18;0.90;;;;;;;16.85;43.14;93156.34;5089621;28;20386;-74
2024/04/03 07:45:41;;;;;;;7.22;1.65;;;;;;;17.08;43.12;93165.59;5090158;28;20039;-74
2024/04/03 07:48:07;;;;;;;2.28;0.98;;;;;;;17.34;41.59;93189.09;5104429;28;20043;-74
2024/04/03 07:50:33;;;;;;;3.17;1.20;;;;;;;17.17;41.64;93119.19;5099949;28;20405;-74
2024/04/03 07:52:59;;;;;;;7.70;1.20;;;;;;;18.05;41.41;93195.84;5090616;28;20555;-74
2024/04/03 07:55:24;;;;;;;5.25;1.27;;;;;;;17.15;40.69;93193.13;5090143;28;20032;-74
2024/04/03 07:57:49;;;;;;;6.38;1.75;;;;;;;16.07;41.80;93160.13;5088110;28;20032;-74
2024/04/03 08:00:15;;;;;;;6.50;1.50;;;;;;;16.12;42.32;93173.91;5093170;28;20024;-74
2024/04/03 08:02:42;;;;;;;2.67;0.82;;;;;;;16.56;43.16;93216.28;5094768;28;20518;-74
2024/04/03 08:05:10;;;;;;;4.00;1.10;;;;;;;16.68;43.41;93172.06;5090553;28;20115;-74
2024/04/03 08:07:36;;;;;;;4.10;1.05;;;;;;;17.18;42.48;93170.06;5088977;28;20454;-74
2024/04/03 08:10:02;;;;;;;2.30;0.95;;;;;;;17.71;40.96;93187.44;5089970;28;20052;-74
2024/04/03 08:12:29;;;;;;;3.85;0.90;;;;;;;17.89;40.29;93199.19;5089382;28;20031;-74
2024/04/03 08:14:59;;;;;;;2.85;0.90;;;;;;;17.08;39.34;93190.78;5089514;28;20047;-74
2024/04/03 08:17:27;;;;;;;3.83;1.35;;;;;;;16.76;39.42;93165.63;5089859;28;20044;-74
2024/04/03 08:19:55;;;;;;;6.70;1.48;;;;;;;17.35;41.95;93202.84;5088852;28;20032;-74
2024/04/03 08:22:21;;;;;;;5.00;1.45;;;;;;;16.99;40.15;93200.78;5089118;28;20392;-74
2024/04/03 08:24:47;;;;;;;;;;;;;;;17.13;41.20;93210.78;5089646;28;20028;-74
2024/04/03 08:27:13;;;;;;;3.38;1.25;;;;;;;16.33;40.41;93192.25;5095278;28;19920;-74
2024/04/03 08:29:42;;;;;;;3.20;1.42;;;;;;;16.58;40.64;93172.75;5091196;28;20032;-74
2024/04/03 08:32:08;;;;;;;4.30;1.00;;;;;;;15.87;41.64;93205.50;5091431;28;20047;-74
2024/04/03 08:34:34;;;;;;;;;;;;;;;16.34;42.96;93206.78;5089363;28;20593;-74
2024/04/03 08:36:59;;;;;;;4.20;1.10;;;;;;;15.99;41.96;93193.25;5088843;28;19954;-74
2024/04/03 08:39:25;;;;;;;2.65;0.77;;;;;;;16.67;42.52;93183.47;5088487;28;20036;-74
2024/04/03 08:41:56;;;;;;;4.72;1.10;;;;;;;17.29;39.84;93194.25;5098851;28;20500;-74
2024/04/03 08:44:22;;;;;;;4.30;1.45;;;;;;;17.86;40.29;93202.28;5105637;28;20118;-74
2024/04/03 08:46:48;;;;;;;;;;;;;;;18.32;39.14;93205.31;5105742;28;20447;-74
2024/04/03 08:49:17;;;;;;;4.60;0.90;;;;;;;18.64;38.21;93197.25;5095619;28;19927;-74
2024/04/03 08:52:10;;;;;;;2.97;0.98;;;;;;;18.49;37.60;93114.81;5088747;28;20028;-74
2024/04/03 08:54:39;;;;;;;5.25;1.70;;;;;;;19.28;37.90;93183.16;5102533;28;20055;-75
2024/04/03 08:57:06;;;;;;;2.78;0.73;;;;;;;19.04;34.95;93196.75;5089107;28;20028;-74
2024/04/03 08:59:32;;;;;;;2.75;0.88;;;;;;;17.75;35.99;93209.28;5095097;28;20484;-74
2024/04/03 09:01:58;;;;;;;2.95;1.35;;;;;;;17.73;36.68;93184.59;5092023;28;20477;-74
2024/04/03 09:04:24;;;;;;;3.63;1.13;;;;;;;18.01;35.96;93193.00;5071242;28;20071;-74
2024/04/03 09:06:49;;;;;;;7.88;0.90;;;;;;;17.51;36.40;93099.84;5089070;28;20047;-74
2024/04/03 09:09:26;;;;;;;5.18;1.15;;;;;;;17.71;35.99;93176.25;5088546;28;20052;-74
2024/04/03 09:12:04;;;;;;;3.40;0.80;;;;;;;17.32;35.74;93169.63;5090474;28;20040;-74
2024/04/03 09:14:29;;;;;;;2.92;1.10;;;;;;;17.60;37.68;93178.03;5092403;28;20035;-74
2024/04/03 09:17:02;;;;;;;2.70;0.93;;;;;;;16.40;37.13;93184.28;5097904;28;20509;-74
2024/04/03 09:19:29;;;;;;;2.95;0.75;;;;;;;16.49;37.57;93193.19;5093546;28;20035;-74
2024/04/03 09:21:55;;;;;;;6.07;1.58;;;;;;;16.97;38.12;93169.13;5091901;28;20035;-74
2024/04/03 09:24:21;;;;;;;4.45;1.00;;;;;;;17.39;38.82;93211.69;5093776;28;20024;-74
2024/04/03 09:26:51;;;;;;;2.78;0.60;;;;;;;17.06;37.87;93152.09;5094889;28;20046;-74
2024/04/03 09:29:17;;;;;;;4.32;1.25;;;;;;;17.61;39.41;93202.97;5093472;28;20035;-74
2024/04/03 09:31:46;;;;;;;3.72;0.70;;;;;;;18.32;36.54;93192.28;5094951;28;20067;-74
2024/04/03 09:34:12;;;;;;;2.22;0.63;;;;;;;18.67;36.25;93169.94;5093500;28;20496;-74
2024/04/03 09:36:38;;;;;;;;;;;;;;;18.92;34.57;93204.78;5091871;28;20518;-74
2024/04/03 09:39:04;;;;;;;4.85;1.38;;;;;;;18.65;36.30;93198.81;5070030;28;19916;-74
2024/04/03 09:41:31;;;;;;;3.38;0.80;;;;;;;17.73;33.84;93193.16;5091822;28;20119;-74
2024/04/03 09:44:02;;;;;;;3.15;0.70;;;;;;;17.57;35.12;93129.97;5095958;28;20034;-74
2024/04/03 09:47:05;;;;;;;3.67;0.70;;;;;;;18.00;34.67;93135.03;5091385;28;20085;-74
2024/04/03 09:49:39;;;;;;;3.13;1.00;;;;;;;18.73;35.91;93181.91;5097149;28;20019;-74
2024/04/03 09:52:05;;;;;;;2.90;0.90;;;;;;;17.42;36.28;93073.59;5095964;28;20040;-74
2024/04/03 09:54:30;;;;;;;6.10;1.52;;;;;;;17.67;35.28;93170.78;5087717;28;20066;-73
2024/04/03 09:56:56;;;;;;;3.17;1.05;;;;;;;16.75;35.55;93117.38;5087753;28;20040;-74
2024/04/03 09:59:21;;;;;;;1.85;0.70;;;;;;;17.43;35.65;93139.28;5091153;28;20381;-74
2024/04/03 10:01:47;;;;;;;2.03;1.00;;;;;;;16.93;36.05;93131.72;5092537;28;20062;-73
2024/04/03 10:04:13;;;;;;;2.95;0.70;;;;;;;17.06;36.11;93133.94;5090486;28;20359;-73
2024/04/03 10:06:41;;;;;;;3.45;0.80;;;;;;;17.68;35.07;93163.78;5088057;28;20500;-74
2024/04/03 10:09:13;;;;;;;4.25;0.93;;;;;;;17.20;35.35;93151.63;5090485;28;20060;-74
2024/04/03 10:11:45;;;;;;;2.55;1.00;;;;;;;17.98;36.57;93159.69;5087648;28;20040;-74
2024/04/03 10:14:27;;;;;;;2.58;1.25;;;;;;;17.71;34.68;93129.50;5091874;28;20393;-74
2024/04/03 10:16:54;;;;;;;3.28;0.85;;;;;;;18.35;35.37;93168.38;5089898;28;20028;-74
2024/04/03 10:19:33;;;;;;;3.50;0.77;;;;;;;18.52;35.43;93135.06;5090734;28;20040;-74
2024/04/03 10:22:03;;;;;;;2.55;0.80;;;;;;;18.76;34.80;93118.16;5089776;28;20032;-74
2024/04/03 10:24:30;;;;;;;1.80;0.88;;;;;;;19.08;34.27;93159.50;5094038;28;20038;-74
2024/04/03 10:26:56;;;;;;;2.70;0.70;;;;;;;19.18;35.08;93132.69;5091541;28;20059;-74
2024/04/03 10:29:21;;;;;;;2.47;0.70;;;;;;;19.77;34.66;93163.44;5091443;28;20526;-74
2024/04/03 10:31:47;;;;;;;;;;;;;;;20.07;34.56;93155.75;5090083;28;20049;-75
2024/04/03 10:34:20;;;;;;;1.98;0.77;;;;;;;20.31;34.18;93147.25;5090734;28;20445;-74
2024/04/03 10:36:46;;;;;;;3.90;0.90;;;;;;;20.28;34.14;93120.66;5090819;28;20989;-75
2024/04/03 10:39:12;;;;;;;3.55;0.40;;;;;;;20.47;33.26;93112.19;5089780;28;20036;-74
2024/04/03 10:41:38;;;;;;;3.60;0.63;;;;;;;20.95;31.78;93149.88;5087519;28;20081;-74
2024/04/03 10:44:03;;;;;;;3.45;0.52;;;;;;;20.93;32.89;93103.16;5089011;28;21038;-74
2024/04/03 10:46:28;;;;;;;;;;;;;;;21.18;32.85;93143.13;5090894;28;20032;-74
2024/04/03 10:48:57;;;;;;;;;;;;;;;21.29;32.87;93149.00;5089647;28;20002;-74
2024/04/03 10:51:23;;;;;;;1.58;0.47;;;;;;;21.11;31.17;93127.03;5090968;28;19915;-74
2024/04/03 10:53:49;;;;;;;3.15;1.00;;;;;;;21.23;31.27;93127.41;5089680;28;20046;-74
2024/04/03 10:56:18;;;;;;;1.52;0.60;;;;;;;21.34;31.68;93101.19;5073910;28;20161;-74
2024/04/03 10:58:44;;;;;;;1.52;0.45;;;;;;;21.23;31.46;93069.16;5091214;28;20032;-75
2024/04/03 11:01:14;;;;;;;1.60;0.43;;;;;;;20.03;32.04;93059.84;5090954;28;20650;-74
2024/04/03 11:03:42;;;;;;;1.98;0.80;;;;;;;18.67;34.02;93079.66;5093323;28;20107;-74
2024/04/03 11:06:09;;;;;;;0.90;0.60;;;;;;;18.46;34.52;93062.53;5091548;28;20043;-74
2024/04/03 11:08:35;;;;;;;3.58;0.80;;;;;;;19.28;36.21;93094.59;5101094;28;20501;-74
2024/04/03 11:11:11;;;;;;;2.03;0.40;;;;;;;19.83;35.08;93094.59;5093091;28;20602;-74
2024/04/03 11:13:37;;;;;;;2.47;0.50;;;;;;;20.03;34.90;93064.25;5092370;28;20133;-74
2024/04/03 11:16:10;;;;;;;5.45;0.73;;;;;;;20.46;34.03;93061.03;5091825;28;20931;-74
2024/04/03 11:18:35;;;;;;;1.40;0.50;;;;;;;20.97;33.34;93082.53;5093439;28;20097;-75
2024/04/03 11:21:05;;;;;;;5.43;0.60;;;;;;;20.55;33.05;92998.63;5095176;28;20032;-74
2024/04/03 11:23:32;;;;;;;4.07;0.70;;;;;;;21.07;31.93;93040.59;5091222;28;20035;-74
2024/04/03 11:25:57;;;;;;;4.13;0.70;;;;;;;21.23;31.48;93048.25;5097258;28;20481;-74
2024/04/03 11:28:23;;;;;;;2.20;0.70;;;;;;;20.50;32.34;93069.88;5085707;28;20039;-74
2024/04/03 11:30:48;;;;;;;2.05;0.60;;;;;;;21.05;32.92;93068.06;5098950;28;20502;-73
2024/04/03 11:33:14;;;;;;;1.65;0.40;;;;;;;21.40;31.73;93055.63;5092109;28;20043;-74
2024/04/03 11:35:39;;;;;;;;;;;;;;;21.53;30.71;93067.22;5091887;28;20043;-74
2024/04/03 11:38:06;;;;;;;;;;;;;;;21.55;30.83;93035.56;5092727;28;19923;-74
2024/04/03 11:40:33;;;;;;;1.92;0.70;;;;;;;21.33;31.28;92984.66;5093174;28;19920;-74
2024/04/03 11:42:58;;;;;;;2.10;0.52;;;;;;;21.82;29.65;93044.63;5092050;28;20062;-73